sensor_id;sensor_type;location;lat;lon;timestamp;pressure;altitude;pressure_sealevel;temperature;humidity
76637;BME280;65532;52.124;5.480;2023-05-07T00:01:12;101621.16;;;13.31;32.90
76637;BME280;65532;52.124;5.480;2023-05-07T00:03:38;101625.63;;;13.26;31.36
76637;BME280;65532;52.124;5.480;2023-05-07T00:06:05;101622.34;;;13.17;28.32
76637;BME280;65532;52.124;5.480;2023-05-07T00:08:32;101626.28;;;13.21;23.83
76637;BME280;65532;52.124;5.480;2023-05-07T00:10:59;101637.09;;;13.28;23.27
76637;BME280;65532;52.124;5.480;2023-05-07T00:13:25;101627.66;;;13.30;25.07
76637;BME280;65532;52.124;5.480;2023-05-07T00:15:52;101626.59;;;13.31;25.67
76637;BME280;65532;52.124;5.480;2023-05-07T00:18:18;101636.88;;;13.29;27.03
76637;BME280;65532;52.124;5.480;2023-05-07T00:20:48;101640.06;;;13.26;28.51
76637;BME280;65532;52.124;5.480;2023-05-07T00:23:15;101634.81;;;13.25;30.13
76637;BME280;65532;52.124;5.480;2023-05-07T00:25:41;101625.22;;;13.22;30.44
76637;BME280;65532;52.124;5.480;2023-05-07T00:28:08;101630.06;;;13.20;31.22
76637;BME280;65532;52.124;5.480;2023-05-07T00:30:34;101628.63;;;13.17;31.18
76637;BME280;65532;52.124;5.480;2023-05-07T00:33:01;101623.41;;;13.16;30.78
76637;BME280;65532;52.124;5.480;2023-05-07T00:35:28;101619.03;;;13.15;29.90
76637;BME280;65532;52.124;5.480;2023-05-07T00:37:55;101623.88;;;13.13;29.82
76637;BME280;65532;52.124;5.480;2023-05-07T00:40:22;101614.88;;;13.12;28.92
76637;BME280;65532;52.124;5.480;2023-05-07T00:42:48;101607.03;;;13.04;27.57
76637;BME280;65532;52.124;5.480;2023-05-07T00:45:16;101611.97;;;12.96;24.77
76637;BME280;65532;52.124;5.480;2023-05-07T00:47:43;101602.44;;;12.86;22.33
76637;BME280;65532;52.124;5.480;2023-05-07T00:50:10;101609.22;;;12.77;20.81
76637;BME280;65532;52.124;5.480;2023-05-07T00:52:39;101603.88;;;12.71;17.22
76637;BME280;65532;52.124;5.480;2023-05-07T00:55:06;101605.16;;;12.68;10.17
76637;BME280;65532;52.124;5.480;2023-05-07T00:57:37;101603.50;;;12.67;6.18
76637;BME280;65532;52.124;5.480;2023-05-07T01:00:06;101605.16;;;12.68;1.77
76637;BME280;65532;52.124;5.480;2023-05-07T01:02:35;101611.22;;;12.70;0.00
76637;BME280;65532;52.124;5.480;2023-05-07T01:05:03;101606.81;;;12.69;0.00
76637;BME280;65532;52.124;5.480;2023-05-07T01:07:33;101600.34;;;12.70;0.00
76637;BME280;65532;52.124;5.480;2023-05-07T01:10:02;101604.72;;;12.71;0.00
76637;BME280;65532;52.124;5.480;2023-05-07T01:12:29;101603.88;;;12.71;0.00
76637;BME280;65532;52.124;5.480;2023-05-07T01:14:57;101597.16;;;12.73;0.00
76637;BME280;65532;52.124;5.480;2023-05-07T01:17:24;101592.31;;;12.75;0.00
76637;BME280;65532;52.124;5.480;2023-05-07T01:19:51;101597.69;;;12.82;0.00
76637;BME280;65532;52.124;5.480;2023-05-07T01:22:45;101598.66;;;12.87;0.00
76637;BME280;65532;52.124;5.480;2023-05-07T01:25:13;101596.78;;;12.88;0.00
76637;BME280;65532;52.124;5.480;2023-05-07T01:27:44;101596.56;;;12.89;0.00
76637;BME280;65532;52.124;5.480;2023-05-07T01:30:11;101595.50;;;12.90;0.00
76637;BME280;65532;52.124;5.480;2023-05-07T01:32:52;101594.88;;;12.88;0.00
76637;BME280;65532;52.124;5.480;2023-05-07T01:35:24;101598.66;;;12.87;0.00
76637;BME280;65532;52.124;5.480;2023-05-07T01:37:51;101595.34;;;12.85;0.00
76637;BME280;65532;52.124;5.480;2023-05-07T01:40:18;101601.72;;;12.79;0.00
76637;BME280;65532;52.124;5.480;2023-05-07T01:42:46;101595.03;;;12.75;0.00
76637;BME280;65532;52.124;5.480;2023-05-07T01:45:12;101599.19;;;12.78;0.00
76637;BME280;65532;52.124;5.480;2023-05-07T01:47:39;101591.28;;;12.76;0.00
76637;BME280;65532;52.124;5.480;2023-05-07T01:50:07;101593.00;;;12.71;0.00
76637;BME280;65532;52.124;5.480;2023-05-07T01:52:37;101604.34;;;12.68;0.00
76637;BME280;65532;52.124;5.480;2023-05-07T01:55:05;101602.09;;;12.65;0.00
76637;BME280;65532;52.124;5.480;2023-05-07T01:57:32;101603.75;;;12.66;0.00
76637;BME280;65532;52.124;5.480;2023-05-07T01:59:59;101595.97;;;12.69;0.00
76637;BME280;65532;52.124;5.480;2023-05-07T02:02:25;101606.00;;;12.69;0.00
76637;BME280;65532;52.124;5.480;2023-05-07T02:04:54;101606.59;;;12.71;0.00
76637;BME280;65532;52.124;5.480;2023-05-07T02:07:21;101605.47;;;12.78;0.00
76637;BME280;65532;52.124;5.480;2023-05-07T02:09:48;101605.03;;;12.81;0.00
76637;BME280;65532;52.124;5.480;2023-05-07T02:12:14;101605.75;;;12.88;0.00
76637;BME280;65532;52.124;5.480;2023-05-07T02:14:41;101604.69;;;12.89;0.00
76637;BME280;65532;52.124;5.480;2023-05-07T02:17:08;101603.03;;;12.88;0.00
76637;BME280;65532;52.124;5.480;2023-05-07T02:19:34;101597.00;;;12.86;0.00
76637;BME280;65532;52.124;5.480;2023-05-07T02:22:01;101599.72;;;12.86;0.00
76637;BME280;65532;52.124;5.480;2023-05-07T02:24:29;101597.94;;;12.80;0.00
76637;BME280;65532;52.124;5.480;2023-05-07T02:26:56;101593.16;;;12.76;0.00
76637;BME280;65532;52.124;5.480;2023-05-07T02:29:23;101599.81;;;12.80;0.00
76637;BME280;65532;52.124;5.480;2023-05-07T02:31:51;101605.16;;;12.86;0.00
76637;BME280;65532;52.124;5.480;2023-05-07T02:34:19;101601.97;;;12.89;0.00
76637;BME280;65532;52.124;5.480;2023-05-07T02:36:45;101594.44;;;12.92;0.00
76637;BME280;65532;52.124;5.480;2023-05-07T02:39:14;101594.44;;;12.92;0.00
76637;BME280;65532;52.124;5.480;2023-05-07T02:41:41;101592.78;;;12.90;0.00
76637;BME280;65532;52.124;5.480;2023-05-07T02:44:08;101603.63;;;12.90;0.00
76637;BME280;65532;52.124;5.480;2023-05-07T02:46:36;101595.94;;;12.87;0.00
76637;BME280;65532;52.124;5.480;2023-05-07T02:49:07;101595.34;;;12.85;0.00
76637;BME280;65532;52.124;5.480;2023-05-07T02:51:33;101599.59;;;12.81;0.00
76637;BME280;65532;52.124;5.480;2023-05-07T02:54:02;101601.91;;;12.78;0.00
76637;BME280;65532;52.124;5.480;2023-05-07T02:56:30;101601.91;;;12.78;0.00
76637;BME280;65532;52.124;5.480;2023-05-07T02:58:57;101597.63;;;12.70;0.00
76637;BME280;65532;52.124;5.480;2023-05-07T03:01:27;101595.66;;;12.59;0.00
76637;BME280;65532;52.124;5.480;2023-05-07T03:04:01;101597.38;;;12.53;0.00
76637;BME280;65532;52.124;5.480;2023-05-07T03:06:27;101596.56;;;12.53;0.00
76637;BME280;65532;52.124;5.480;2023-05-07T03:08:54;101596.56;;;12.53;0.00
76637;BME280;65532;52.124;5.480;2023-05-07T03:11:20;101594.44;;;12.55;0.00
76637;BME280;65532;52.124;5.480;2023-05-07T03:13:47;101595.19;;;12.62;0.00
76637;BME280;65532;52.124;5.480;2023-05-07T03:16:16;101597.25;;;12.67;0.00
76637;BME280;65532;52.124;5.480;2023-05-07T03:18:42;101595.97;;;12.69;0.00
76637;BME280;65532;52.124;5.480;2023-05-07T03:21:09;101594.69;;;12.72;0.00
76637;BME280;65532;52.124;5.480;2023-05-07T03:23:35;101591.72;;;12.73;0.00
76637;BME280;65532;52.124;5.480;2023-05-07T03:26:02;101591.97;;;12.72;0.00
76637;BME280;65532;52.124;5.480;2023-05-07T03:28:29;101587.44;;;12.66;0.00
76637;BME280;65532;52.124;5.480;2023-05-07T03:30:59;101590.81;;;12.61;0.00
76637;BME280;65532;52.124;5.480;2023-05-07T03:33:26;101588.94;;;12.62;0.00
76637;BME280;65532;52.124;5.480;2023-05-07T03:35:54;101591.00;;;12.66;0.00
76637;BME280;65532;52.124;5.480;2023-05-07T03:38:23;101594.69;;;12.72;0.00
76637;BME280;65532;52.124;5.480;2023-05-07T03:40:50;101588.78;;;12.75;0.00
76637;BME280;65532;52.124;5.480;2023-05-07T03:43:17;101592.94;;;12.77;0.00
76637;BME280;65532;52.124;5.480;2023-05-07T03:45:48;101591.72;;;12.73;0.00
76637;BME280;65532;52.124;5.480;2023-05-07T03:48:20;101585.09;;;12.69;0.00
76637;BME280;65532;52.124;5.480;2023-05-07T03:50:47;101591.59;;;12.68;0.00
76637;BME280;65532;52.124;5.480;2023-05-07T03:53:16;101592.88;;;12.66;0.00
76637;BME280;65532;52.124;5.480;2023-05-07T03:55:42;101593.09;;;12.64;0.00
76637;BME280;65532;52.124;5.480;2023-05-07T03:58:09;101603.78;;;12.59;0.00
76637;BME280;65532;52.124;5.480;2023-05-07T04:00:36;101597.53;;;12.58;0.00
76637;BME280;65532;52.124;5.480;2023-05-07T04:03:14;101600.63;;;12.62;0.00
76637;BME280;65532;52.124;5.480;2023-05-07T04:05:40;101605.03;;;12.63;0.00
76637;BME280;65532;52.124;5.480;2023-05-07T04:08:07;101607.66;;;12.70;0.00
76637;BME280;65532;52.124;5.480;2023-05-07T04:10:38;101609.69;;;12.74;0.00
76637;BME280;65532;52.124;5.480;2023-05-07T04:13:08;101605.47;;;12.78;0.00
76637;BME280;65532;52.124;5.480;2023-05-07T04:15:35;101604.44;;;12.79;0.00
76637;BME280;65532;52.124;5.480;2023-05-07T04:18:04;101611.53;;;12.80;0.00
76637;BME280;65532;52.124;5.480;2023-05-07T04:20:34;101613.78;;;12.83;0.00
76637;BME280;65532;52.124;5.480;2023-05-07T04:23:04;101610.47;;;12.81;0.00
76637;BME280;65532;52.124;5.480;2023-05-07T04:25:31;101615.91;;;12.81;0.00
76637;BME280;65532;52.124;5.480;2023-05-07T04:28:06;101623.00;;;12.82;0.00
76637;BME280;65532;52.124;5.480;2023-05-07T04:30:32;101612.56;;;12.79;0.00
76637;BME280;65532;52.124;5.480;2023-05-07T04:33:01;101622.44;;;12.74;0.00
76637;BME280;65532;52.124;5.480;2023-05-07T04:35:29;101613.94;;;12.70;0.00
76637;BME280;65532;52.124;5.480;2023-05-07T04:37:56;101619.22;;;12.65;0.00
76637;BME280;65532;52.124;5.480;2023-05-07T04:40:23;101623.59;;;12.66;0.00
76637;BME280;65532;52.124;5.480;2023-05-07T04:42:49;101615.59;;;12.71;0.00
76637;BME280;65532;52.124;5.480;2023-05-07T04:45:17;101618.00;;;12.79;0.00
76637;BME280;65532;52.124;5.480;2023-05-07T04:47:45;101620.72;;;12.79;0.00
76637;BME280;65532;52.124;5.480;2023-05-07T04:50:12;101615.91;;;12.81;0.00
76637;BME280;65532;52.124;5.480;2023-05-07T04:52:41;101615.66;;;12.83;0.00
76637;BME280;65532;52.124;5.480;2023-05-07T04:55:08;101619.22;;;12.83;0.00
76637;BME280;65532;52.124;5.480;2023-05-07T04:57:37;101618.16;;;12.84;0.00
76637;BME280;65532;52.124;5.480;2023-05-07T05:00:06;101622.06;;;12.88;0.00
76637;BME280;65532;52.124;5.480;2023-05-07T05:02:36;101629.75;;;12.92;0.00
76637;BME280;65532;52.124;5.480;2023-05-07T05:05:03;101632.06;;;12.95;0.00
76637;BME280;65532;52.124;5.480;2023-05-07T05:07:29;101630.31;;;13.00;0.00
76637;BME280;65532;52.124;5.480;2023-05-07T05:09:56;101629.38;;;13.06;0.00
76637;BME280;65532;52.124;5.480;2023-05-07T05:12:24;101633.09;;;13.12;0.00
76637;BME280;65532;52.124;5.480;2023-05-07T05:14:50;101632.84;;;13.13;0.00
76637;BME280;65532;52.124;5.480;2023-05-07T05:17:17;101638.66;;;13.17;1.03
76637;BME280;65532;52.124;5.480;2023-05-07T05:19:43;101637.63;;;13.18;1.23
76637;BME280;65532;52.124;5.480;2023-05-07T05:22:10;101637.16;;;13.21;3.27
76637;BME280;65532;52.124;5.480;2023-05-07T05:24:36;101638.22;;;13.20;5.08
76637;BME280;65532;52.124;5.480;2023-05-07T05:27:04;101639.88;;;13.21;4.74
76637;BME280;65532;52.124;5.480;2023-05-07T05:29:30;101637.94;;;13.28;4.07
76637;BME280;65532;52.124;5.480;2023-05-07T05:31:58;101633.44;;;13.34;4.52
76637;BME280;65532;52.124;5.480;2023-05-07T05:34:26;101648.47;;;13.36;8.29
76637;BME280;65532;52.124;5.480;2023-05-07T05:36:53;101643.03;;;13.36;11.98
76637;BME280;65532;52.124;5.480;2023-05-07T05:39:19;101648.84;;;13.40;12.31
76637;BME280;65532;52.124;5.480;2023-05-07T05:41:46;101655.75;;;13.42;12.40
76637;BME280;65532;52.124;5.480;2023-05-07T05:44:13;101661.19;;;13.42;14.51
76637;BME280;65532;52.124;5.480;2023-05-07T05:46:42;101651.72;;;13.45;15.37
76637;BME280;65532;52.124;5.480;2023-05-07T05:49:09;101660.25;;;13.48;15.79
76637;BME280;65532;52.124;5.480;2023-05-07T05:51:37;101663.34;;;13.52;15.85
76637;BME280;65532;52.124;5.480;2023-05-07T05:54:04;101666.41;;;13.56;16.48
76637;BME280;65532;52.124;5.480;2023-05-07T05:56:31;101667.16;;;13.63;17.90
76637;BME280;65532;52.124;5.480;2023-05-07T05:58:58;101674.56;;;13.74;18.16
76637;BME280;65532;52.124;5.480;2023-05-07T06:01:25;101669.81;;;13.81;25.19
76637;BME280;65532;52.124;5.480;2023-05-07T06:03:53;101680.41;;;13.89;28.67
76637;BME280;65532;52.124;5.480;2023-05-07T06:06:19;101675.06;;;13.94;30.32
76637;BME280;65532;52.124;5.480;2023-05-07T06:08:46;101679.47;;;13.95;29.96
76637;BME280;65532;52.124;5.480;2023-05-07T06:11:17;101686.69;;;14.01;33.31
76637;BME280;65532;52.124;5.480;2023-05-07T06:13:45;101687.28;;;14.03;38.68
76637;BME280;65532;52.124;5.480;2023-05-07T06:16:13;101678.66;;;14.06;41.42
76637;BME280;65532;52.124;5.480;2023-05-07T06:18:40;101683.63;;;14.09;42.93
76637;BME280;65532;52.124;5.480;2023-05-07T06:21:07;101686.25;;;14.16;45.64
76637;BME280;65532;52.124;5.480;2023-05-07T06:23:34;101690.53;;;14.24;46.35
76637;BME280;65532;52.124;5.480;2023-05-07T06:26:01;101691.13;;;14.26;51.43
76637;BME280;65532;52.124;5.480;2023-05-07T06:28:33;101692.44;;;14.23;57.18
76637;BME280;65532;52.124;5.480;2023-05-07T06:31:18;101689.31;;;14.20;58.22
76637;BME280;65532;52.124;5.480;2023-05-07T06:34:00;101685.09;;;14.24;57.83
76637;BME280;65532;52.124;5.480;2023-05-07T06:36:33;101691.94;;;14.26;60.61
76637;BME280;65532;52.124;5.480;2023-05-07T06:39:05;101687.22;;;14.22;58.77
76637;BME280;65532;52.124;5.480;2023-05-07T06:41:31;101693.84;;;14.26;58.32
76637;BME280;65532;52.124;5.480;2023-05-07T06:44:05;101698.94;;;14.34;56.31
76637;BME280;65532;52.124;5.480;2023-05-07T06:46:43;101695.44;;;14.45;53.81
76637;BME280;65532;52.124;5.480;2023-05-07T06:49:10;101701.34;;;14.42;59.54
76637;BME280;65532;52.124;5.480;2023-05-07T06:51:36;101704.06;;;14.42;59.74
76637;BME280;65532;52.124;5.480;2023-05-07T06:54:03;101699.69;;;14.41;60.23
76637;BME280;65532;52.124;5.480;2023-05-07T06:56:32;101706.19;;;14.40;61.57
76637;BME280;65532;52.124;5.480;2023-05-07T06:59:02;101703.69;;;14.38;60.45
76637;BME280;65532;52.124;5.480;2023-05-07T07:01:34;101699.56;;;14.36;58.75
76637;BME280;65532;52.124;5.480;2023-05-07T07:04:02;101702.63;;;14.28;55.10
76637;BME280;65532;52.124;5.480;2023-05-07T07:06:29;101697.16;;;14.28;47.21
76637;BME280;65532;52.124;5.480;2023-05-07T07:08:59;101705.44;;;14.33;40.56
76637;BME280;65532;52.124;5.480;2023-05-07T07:11:27;101703.13;;;14.48;38.23
76637;BME280;65532;52.124;5.480;2023-05-07T07:13:55;101699.94;;;14.63;37.09
76637;BME280;65532;52.124;5.480;2023-05-07T07:16:25;101694.72;;;14.85;41.07
76637;BME280;65532;52.124;5.480;2023-05-07T07:18:51;101697.31;;;15.03;47.12
76637;BME280;65532;52.124;5.480;2023-05-07T07:21:19;101697.53;;;15.13;54.46
76637;BME280;65532;52.124;5.480;2023-05-07T07:23:46;101694.25;;;15.00;58.00
76637;BME280;65532;52.124;5.480;2023-05-07T07:26:12;101700.25;;;15.13;57.14
76637;BME280;65532;52.124;5.480;2023-05-07T07:28:43;101692.19;;;15.18;60.70
76637;BME280;65532;52.124;5.480;2023-05-07T07:31:13;101691.16;;;15.48;59.82
76637;BME280;65532;52.124;5.480;2023-05-07T07:33:40;101700.44;;;15.75;62.64
76637;BME280;65532;52.124;5.480;2023-05-07T07:36:07;101691.69;;;15.90;71.29
76637;BME280;65532;52.124;5.480;2023-05-07T07:38:34;101700.94;;;16.17;72.22
76637;BME280;65532;52.124;5.480;2023-05-07T07:41:01;101703.50;;;16.58;80.57
76637;BME280;65532;52.124;5.480;2023-05-07T07:43:29;101702.75;;;16.62;85.69
76637;BME280;65532;52.124;5.480;2023-05-07T07:45:55;101700.19;;;16.22;86.93
76637;BME280;65532;52.124;5.480;2023-05-07T07:48:22;101699.13;;;16.73;80.31
76637;BME280;65532;52.124;5.480;2023-05-07T07:50:49;101701.63;;;16.97;88.04
76637;BME280;65532;52.124;5.480;2023-05-07T07:53:18;101703.06;;;16.83;88.86
76637;BME280;65532;52.124;5.480;2023-05-07T07:55:45;101707.22;;;16.85;88.54
76637;BME280;65532;52.124;5.480;2023-05-07T07:58:15;101718.25;;;17.12;89.10
76637;BME280;65532;52.124;5.480;2023-05-07T08:00:41;101723.31;;;17.20;89.69
76637;BME280;65532;52.124;5.480;2023-05-07T08:03:10;101724.75;;;17.28;90.03
76637;BME280;65532;52.124;5.480;2023-05-07T08:05:40;101734.69;;;17.12;90.41
76637;BME280;65532;52.124;5.480;2023-05-07T08:08:07;101730.03;;;17.13;90.35
76637;BME280;65532;52.124;5.480;2023-05-07T08:10:36;101729.00;;;17.19;90.24
76637;BME280;65532;52.124;5.480;2023-05-07T08:13:10;101726.22;;;17.14;90.15
76637;BME280;65532;52.124;5.480;2023-05-07T08:15:38;101723.25;;;16.98;90.01
76637;BME280;65532;52.124;5.480;2023-05-07T08:18:05;101723.25;;;16.98;90.27
76637;BME280;65532;52.124;5.480;2023-05-07T08:20:33;101723.72;;;17.12;90.04
76637;BME280;65532;52.124;5.480;2023-05-07T08:23:02;101724.50;;;17.29;90.09
76637;BME280;65532;52.124;5.480;2023-05-07T08:25:28;101727.50;;;17.28;90.77
76637;BME280;65532;52.124;5.480;2023-05-07T08:27:55;101729.31;;;17.00;90.66
76637;BME280;65532;52.124;5.480;2023-05-07T08:30:22;101728.38;;;17.12;90.34
76637;BME280;65532;52.124;5.480;2023-05-07T08:32:50;101724.59;;;16.96;90.79
76637;BME280;65532;52.124;5.480;2023-05-07T08:35:16;101721.31;;;16.77;90.49
76637;BME280;65532;52.124;5.480;2023-05-07T08:37:43;101727.31;;;16.74;90.29
76637;BME280;65532;52.124;5.480;2023-05-07T08:40:10;101733.34;;;16.59;89.77
76637;BME280;65532;52.124;5.480;2023-05-07T08:42:40;101732.50;;;16.59;89.50
76637;BME280;65532;52.124;5.480;2023-05-07T08:45:09;101737.72;;;16.43;89.35
76637;BME280;65532;52.124;5.480;2023-05-07T08:47:43;101735.56;;;16.29;88.87
76637;BME280;65532;52.124;5.480;2023-05-07T08:50:12;101735.44;;;16.24;88.08
76637;BME280;65532;52.124;5.480;2023-05-07T08:52:42;101740.44;;;16.10;87.92
76637;BME280;65532;52.124;5.480;2023-05-07T08:55:09;101745.88;;;16.10;87.62
76637;BME280;65532;52.124;5.480;2023-05-07T08:57:36;101740.25;;;16.16;85.60
76637;BME280;65532;52.124;5.480;2023-05-07T09:00:07;101736.28;;;16.24;85.16
76637;BME280;65532;52.124;5.480;2023-05-07T09:02:36;101732.25;;;16.27;83.06
76637;BME280;65532;52.124;5.480;2023-05-07T09:05:04;101737.47;;;16.28;80.37
76637;BME280;65532;52.124;5.480;2023-05-07T09:07:32;101735.88;;;16.32;78.85
76637;BME280;65532;52.124;5.480;2023-05-07T09:10:04;101735.38;;;16.35;79.37
76637;BME280;65532;52.124;5.480;2023-05-07T09:12:32;101732.06;;;16.33;79.50
76637;BME280;65532;52.124;5.480;2023-05-07T09:14:59;101741.34;;;16.32;79.95
76637;BME280;65532;52.124;5.480;2023-05-07T09:17:28;101740.78;;;16.30;80.49
76637;BME280;65532;52.124;5.480;2023-05-07T09:19:54;101738.53;;;16.27;81.74
76637;BME280;65532;52.124;5.480;2023-05-07T09:22:21;101737.69;;;16.10;80.21
76637;BME280;65532;52.124;5.480;2023-05-07T09:24:56;101735.53;;;16.12;78.06
76637;BME280;65532;52.124;5.480;2023-05-07T09:27:25;101737.78;;;16.15;74.49
76637;BME280;65532;52.124;5.480;2023-05-07T09:29:53;101734.38;;;16.25;75.78
76637;BME280;65532;52.124;5.480;2023-05-07T09:32:20;101733.66;;;16.29;72.36
76637;BME280;65532;52.124;5.480;2023-05-07T09:34:47;101735.50;;;16.57;72.21
76637;BME280;65532;52.124;5.480;2023-05-07T09:37:15;101735.13;;;16.54;78.72
76637;BME280;65532;52.124;5.480;2023-05-07T09:39:44;101733.97;;;16.50;77.63
76637;BME280;65532;52.124;5.480;2023-05-07T09:42:13;101731.44;;;16.60;74.42
76637;BME280;65532;52.124;5.480;2023-05-07T09:44:43;101735.25;;;16.75;77.33
76637;BME280;65532;52.124;5.480;2023-05-07T09:47:18;101721.91;;;16.79;80.27
76637;BME280;65532;52.124;5.480;2023-05-07T09:49:49;101734.06;;;16.88;83.45
76637;BME280;65532;52.124;5.480;2023-05-07T09:52:20;101734.25;;;16.82;84.06
76637;BME280;65532;52.124;5.480;2023-05-07T09:54:51;101742.06;;;16.73;84.51
76637;BME280;65532;52.124;5.480;2023-05-07T09:57:22;101741.13;;;16.84;84.70
76637;BME280;65532;52.124;5.480;2023-05-07T09:59:56;101742.50;;;16.87;84.47
76637;BME280;65532;52.124;5.480;2023-05-07T10:02:25;101739.19;;;16.85;84.85
76637;BME280;65532;52.124;5.480;2023-05-07T10:04:55;101744.34;;;16.81;84.56
76637;BME280;65532;52.124;5.480;2023-05-07T10:07:27;101747.41;;;16.85;84.00
76637;BME280;65532;52.124;5.480;2023-05-07T10:09:59;101743.44;;;16.92;83.88
76637;BME280;65532;52.124;5.480;2023-05-07T10:12:34;101754.94;;;16.94;83.77
76637;BME280;65532;52.124;5.480;2023-05-07T10:15:11;101746.72;;;17.11;84.88
76637;BME280;65532;52.124;5.480;2023-05-07T10:17:41;101755.44;;;17.30;86.82
76637;BME280;65532;52.124;5.480;2023-05-07T10:20:09;101756.88;;;17.16;88.81
76637;BME280;65532;52.124;5.480;2023-05-07T10:22:41;101753.38;;;16.98;88.45
76637;BME280;65532;52.124;5.480;2023-05-07T10:25:23;101760.94;;;16.91;87.81
76637;BME280;65532;52.124;5.480;2023-05-07T10:27:54;101751.91;;;16.91;87.46
76637;BME280;65532;52.124;5.480;2023-05-07T10:33:13;101754.75;;;17.01;85.72
76637;BME280;65532;52.124;5.480;2023-05-07T10:35:44;101750.91;;;17.19;86.14
76637;BME280;65532;52.124;5.480;2023-05-07T10:38:12;101752.34;;;17.43;86.84
76637;BME280;65532;52.124;5.480;2023-05-07T10:40:41;101746.47;;;17.56;87.28
76637;BME280;65532;52.124;5.480;2023-05-07T10:43:08;101751.97;;;17.78;88.20
76637;BME280;65532;52.124;5.480;2023-05-07T10:46:10;101753.91;;;18.05;89.38
76637;BME280;65532;52.124;5.480;2023-05-07T10:54:37;101748.00;;;18.82;88.98
76637;BME280;65532;52.124;5.480;2023-05-07T10:57:35;101747.88;;;19.09;89.15
76637;BME280;65532;52.124;5.480;2023-05-07T11:03:06;101750.56;;;19.41;88.03
76637;BME280;65532;52.124;5.480;2023-05-07T11:05:43;101746.53;;;19.59;88.16
76637;BME280;65532;52.124;5.480;2023-05-07T11:08:19;101749.84;;;19.71;87.22
76637;BME280;65532;52.124;5.480;2023-05-07T11:10:56;101747.03;;;19.56;87.59
76637;BME280;65532;52.124;5.480;2023-05-07T11:13:43;101752.66;;;19.91;87.08
76637;BME280;65532;52.124;5.480;2023-05-07T11:16:24;101751.06;;;20.06;85.97
76637;BME280;65532;52.124;5.480;2023-05-07T11:19:01;101748.84;;;20.08;85.98
76637;BME280;65532;52.124;5.480;2023-05-07T11:21:35;101757.59;;;19.79;85.72
76637;BME280;65532;52.124;5.480;2023-05-07T11:24:21;101754.84;;;19.84;85.38
76637;BME280;65532;52.124;5.480;2023-05-07T11:26:53;101753.72;;;19.80;86.54
76637;BME280;65532;52.124;5.480;2023-05-07T11:29:22;101760.16;;;20.31;85.45
76637;BME280;65532;52.124;5.480;2023-05-07T11:31:55;101771.75;;;20.49;85.52
76637;BME280;65532;52.124;5.480;2023-05-07T11:34:26;101765.16;;;20.55;84.50
76637;BME280;65532;52.124;5.480;2023-05-07T11:36:54;101773.13;;;20.56;84.88
76637;BME280;65532;52.124;5.480;2023-05-07T11:39:33;101764.88;;;20.72;84.83
76637;BME280;65532;52.124;5.480;2023-05-07T11:42:00;101764.25;;;21.15;83.84
76637;BME280;65532;52.124;5.480;2023-05-07T11:44:45;101758.81;;;20.75;82.23
76637;BME280;65532;52.124;5.480;2023-05-07T11:47:19;101760.75;;;20.69;81.80
76637;BME280;65532;52.124;5.480;2023-05-07T11:49:48;101767.28;;;20.99;82.54
76637;BME280;65532;52.124;5.480;2023-05-07T11:52:16;101753.50;;;21.09;81.42
76637;BME280;65532;52.124;5.480;2023-05-07T11:54:53;101761.78;;;21.04;81.43
76637;BME280;65532;52.124;5.480;2023-05-07T11:57:24;101763.19;;;21.01;80.64
76637;BME280;65532;52.124;5.480;2023-05-07T11:59:58;101763.97;;;21.17;80.04
76637;BME280;65532;52.124;5.480;2023-05-07T12:02:33;101753.69;;;21.43;80.39
76637;BME280;65532;52.124;5.480;2023-05-07T12:05:01;101756.47;;;21.48;79.10
76637;BME280;65532;52.124;5.480;2023-05-07T12:07:28;101748.63;;;21.70;78.76
76637;BME280;65532;52.124;5.480;2023-05-07T12:09:55;101759.91;;;21.74;77.71
76637;BME280;65532;52.124;5.480;2023-05-07T12:12:22;101750.38;;;21.51;78.13
76637;BME280;65532;52.124;5.480;2023-05-07T12:14:49;101758.41;;;21.42;77.88
76637;BME280;65532;52.124;5.480;2023-05-07T12:17:16;101760.25;;;21.62;77.55
76637;BME280;65532;52.124;5.480;2023-05-07T12:19:44;101759.34;;;21.77;76.98
76637;BME280;65532;52.124;5.480;2023-05-07T12:22:11;101756.50;;;21.92;75.40
76637;BME280;65532;52.124;5.480;2023-05-07T12:24:47;101761.88;;;21.68;76.51
76637;BME280;65532;52.124;5.480;2023-05-07T12:27:18;101761.25;;;21.81;75.85
76637;BME280;65532;52.124;5.480;2023-05-07T12:29:49;101756.41;;;21.63;73.08
76637;BME280;65532;52.124;5.480;2023-05-07T12:32:25;101765.25;;;21.50;72.89
76637;BME280;65532;52.124;5.480;2023-05-07T12:34:52;101762.06;;;20.97;74.67
76637;BME280;65532;52.124;5.480;2023-05-07T12:37:25;101758.16;;;21.34;74.99
76637;BME280;65532;52.124;5.480;2023-05-07T12:40:05;101760.84;;;21.54;75.09
76637;BME280;65532;52.124;5.480;2023-05-07T12:42:40;101763.06;;;21.42;75.08
76637;BME280;65532;52.124;5.480;2023-05-07T12:45:13;101757.78;;;21.56;75.02
76637;BME280;65532;52.124;5.480;2023-05-07T12:47:45;101759.22;;;21.48;73.75
76637;BME280;65532;52.124;5.480;2023-05-07T12:50:15;101756.88;;;21.75;72.86
76637;BME280;65532;52.124;5.480;2023-05-07T12:52:43;101771.63;;;22.05;72.40
76637;BME280;65532;52.124;5.480;2023-05-07T12:55:13;101760.00;;;22.08;69.95
76637;BME280;65532;52.124;5.480;2023-05-07T12:57:48;101766.41;;;22.42;70.49
76637;BME280;65532;52.124;5.480;2023-05-07T13:00:15;101765.16;;;22.59;69.24
76637;BME280;65532;52.124;5.480;2023-05-07T13:02:43;101769.19;;;22.37;70.37
76637;BME280;65532;52.124;5.480;2023-05-07T13:05:13;101768.00;;;22.04;69.24
76637;BME280;65532;52.124;5.480;2023-05-07T13:07:40;101770.94;;;21.74;70.61
76637;BME280;65532;52.124;5.480;2023-05-07T13:10:07;101772.34;;;21.71;71.22
76637;BME280;65532;52.124;5.480;2023-05-07T13:12:34;101764.38;;;21.60;71.66
76637;BME280;65532;52.124;5.480;2023-05-07T13:15:01;101767.13;;;21.60;72.31